sensor_id;sensor_type;location;lat;lon;timestamp;pressure;altitude;pressure_sealevel;temperature;humidity
14067;BME280;7108;42.684;23.350;2023-02-12T00:00:33;96323.38;;;1.56;51.76
14067;BME280;7108;42.684;23.350;2023-02-12T00:02:58;96318.56;;;1.63;52.05
14067;BME280;7108;42.684;23.350;2023-02-12T00:05:24;96313.84;;;1.55;51.77
14067;BME280;7108;42.684;23.350;2023-02-12T00:07:50;96322.56;;;1.60;51.85
14067;BME280;7108;42.684;23.350;2023-02-12T00:10:15;96314.66;;;1.55;51.74
14067;BME280;7108;42.684;23.350;2023-02-12T00:12:41;96327.56;;;1.67;51.29
14067;BME280;7108;42.684;23.350;2023-02-12T00:15:07;96333.72;;;1.62;51.80
14067;BME280;7108;42.684;23.350;2023-02-12T00:17:32;96324.44;;;1.60;51.81
14067;BME280;7108;42.684;23.350;2023-02-12T00:19:58;96317.56;;;1.59;51.90
14067;BME280;7108;42.684;23.350;2023-02-12T00:22:23;96325.53;;;1.54;51.93
14067;BME280;7108;42.684;23.350;2023-02-12T00:24:48;96334.00;;;1.56;51.62
14067;BME280;7108;42.684;23.350;2023-02-12T00:27:14;96322.34;;;1.52;51.92
14067;BME280;7108;42.684;23.350;2023-02-12T00:29:39;96320.75;;;1.51;51.91
14067;BME280;7108;42.684;23.350;2023-02-12T00:32:05;96324.75;;;1.48;51.57
14067;BME280;7108;42.684;23.350;2023-02-12T00:34:30;96319.19;;;1.50;51.98
14067;BME280;7108;42.684;23.350;2023-02-12T00:36:56;96305.69;;;1.46;51.87
14067;BME280;7108;42.684;23.350;2023-02-12T00:39:21;96308.88;;;1.43;52.00
14067;BME280;7108;42.684;23.350;2023-02-12T00:41:46;96299.34;;;1.42;51.46
14067;BME280;7108;42.684;23.350;2023-02-12T00:44:12;96306.19;;;1.48;51.84
14067;BME280;7108;42.684;23.350;2023-02-12T00:46:37;96306.47;;;1.47;52.17
14067;BME280;7108;42.684;23.350;2023-02-12T00:49:03;96288.41;;;1.49;51.89
14067;BME280;7108;42.684;23.350;2023-02-12T00:51:28;96290.78;;;1.50;51.61
14067;BME280;7108;42.684;23.350;2023-02-12T00:53:53;96294.75;;;1.53;51.78
14067;BME280;7108;42.684;23.350;2023-02-12T00:56:19;96278.53;;;1.54;51.76
14067;BME280;7108;42.684;23.350;2023-02-12T00:58:45;96279.09;;;1.51;52.12
14067;BME280;7108;42.684;23.350;2023-02-12T01:01:10;96274.59;;;1.47;52.05
14067;BME280;7108;42.684;23.350;2023-02-12T01:03:36;96264.53;;;1.44;52.01
14067;BME280;7108;42.684;23.350;2023-02-12T01:06:02;96280.94;;;1.51;51.84
14067;BME280;7108;42.684;23.350;2023-02-12T01:08:28;96284.66;;;1.55;52.39
14067;BME280;7108;42.684;23.350;2023-02-12T01:11:04;96290.47;;;1.57;52.02
14067;BME280;7108;42.684;23.350;2023-02-12T01:13:31;96297.91;;;1.60;52.12
14067;BME280;7108;42.684;23.350;2023-02-12T01:16:01;96288.06;;;1.60;51.82
14067;BME280;7108;42.684;23.350;2023-02-12T01:18:27;96287.00;;;1.61;52.31
14067;BME280;7108;42.684;23.350;2023-02-12T01:20:52;96287.00;;;1.61;52.61
14067;BME280;7108;42.684;23.350;2023-02-12T01:23:18;96285.69;;;1.59;52.88
14067;BME280;7108;42.684;23.350;2023-02-12T01:25:43;96299.75;;;1.59;52.77
14067;BME280;7108;42.684;23.350;2023-02-12T01:28:10;96299.78;;;1.54;53.25
14067;BME280;7108;42.684;23.350;2023-02-12T01:30:35;96291.34;;;1.47;53.27
14067;BME280;7108;42.684;23.350;2023-02-12T01:33:00;96302.72;;;1.53;53.73
14067;BME280;7108;42.684;23.350;2023-02-12T01:35:26;96296.06;;;1.55;53.24
14067;BME280;7108;42.684;23.350;2023-02-12T01:37:51;96292.91;;;1.48;53.70
14067;BME280;7108;42.684;23.350;2023-02-12T01:40:17;96288.72;;;1.42;53.70
14067;BME280;7108;42.684;23.350;2023-02-12T01:42:43;96283.66;;;1.41;54.08
14067;BME280;7108;42.684;23.350;2023-02-12T01:47:41;96277.88;;;1.34;54.74
14067;BME280;7108;42.684;23.350;2023-02-12T01:50:10;96280.59;;;1.24;55.20
14067;BME280;7108;42.684;23.350;2023-02-12T01:52:38;96270.22;;;1.23;55.62
14067;BME280;7108;42.684;23.350;2023-02-12T01:55:07;96260.94;;;1.20;55.93
14067;BME280;7108;42.684;23.350;2023-02-12T01:57:38;96270.00;;;1.19;56.15
14067;BME280;7108;42.684;23.350;2023-02-12T02:00:07;96277.97;;;1.19;56.35
14067;BME280;7108;42.684;23.350;2023-02-12T02:02:33;96280.09;;;1.17;56.57
14067;BME280;7108;42.684;23.350;2023-02-12T02:05:02;96284.75;;;1.35;57.08
14067;BME280;7108;42.684;23.350;2023-02-12T02:07:29;96271.69;;;1.43;56.53
14067;BME280;7108;42.684;23.350;2023-02-12T02:09:55;96266.16;;;1.35;56.84
14067;BME280;7108;42.684;23.350;2023-02-12T02:12:21;96278.13;;;1.32;57.54
14067;BME280;7108;42.684;23.350;2023-02-12T02:15:06;96286.09;;;1.32;57.99
14067;BME280;7108;42.684;23.350;2023-02-12T02:28:52;96266.44;;;1.33;61.27
14067;BME280;7108;42.684;23.350;2023-02-12T02:31:43;96265.94;;;1.31;60.96
14067;BME280;7108;42.684;23.350;2023-02-12T02:34:24;96263.38;;;1.12;60.72
14067;BME280;7108;42.684;23.350;2023-02-12T02:39:40;96252.88;;;0.87;63.03
14067;BME280;7108;42.684;23.350;2023-02-12T02:45:01;96259.31;;;0.71;65.30
14067;BME280;7108;42.684;23.350;2023-02-12T02:47:34;96257.22;;;0.68;66.55
14067;BME280;7108;42.684;23.350;2023-02-12T02:50:09;96263.56;;;0.67;66.69
14067;BME280;7108;42.684;23.350;2023-02-12T02:52:42;96260.94;;;0.62;67.64
14067;BME280;7108;42.684;23.350;2023-02-12T02:55:12;96269.44;;;0.59;67.77
14067;BME280;7108;42.684;23.350;2023-02-12T02:57:50;96265.94;;;0.68;67.73
14067;BME280;7108;42.684;23.350;2023-02-12T03:00:22;96277.34;;;0.74;67.71
14067;BME280;7108;42.684;23.350;2023-02-12T03:03:12;96279.44;;;0.77;69.10
14067;BME280;7108;42.684;23.350;2023-02-12T03:05:47;96269.88;;;0.81;68.04
14067;BME280;7108;42.684;23.350;2023-02-12T03:08:18;96263.53;;;0.77;68.72
14067;BME280;7108;42.684;23.350;2023-02-12T03:11:09;96273.63;;;0.80;68.55
14067;BME280;7108;42.684;23.350;2023-02-12T03:13:45;96268.31;;;0.80;68.57
14067;BME280;7108;42.684;23.350;2023-02-12T03:16:17;96276.78;;;0.82;68.78
14067;BME280;7108;42.684;23.350;2023-02-12T03:18:50;96267.03;;;0.72;69.20
14067;BME280;7108;42.684;23.350;2023-02-12T03:21:20;96267.81;;;0.68;70.02
14067;BME280;7108;42.684;23.350;2023-02-12T03:24:03;96271.25;;;0.68;69.78
14067;BME280;7108;42.684;23.350;2023-02-12T03:26:47;96260.94;;;0.62;70.70
14067;BME280;7108;42.684;23.350;2023-02-12T03:29:14;96261.72;;;0.63;70.20
14067;BME280;7108;42.684;23.350;2023-02-12T03:34:36;96274.69;;;0.74;70.93
14067;BME280;7108;42.684;23.350;2023-02-12T03:39:56;96259.31;;;0.66;70.38
14067;BME280;7108;42.684;23.350;2023-02-12T03:45:03;96267.00;;;0.67;70.10
14067;BME280;7108;42.684;23.350;2023-02-12T03:47:47;96261.19;;;0.65;69.61
14067;BME280;7108;42.684;23.350;2023-02-12T03:50:32;96263.84;;;0.70;69.52
14067;BME280;7108;42.684;23.350;2023-02-12T03:53:01;96265.91;;;0.78;69.75
14067;BME280;7108;42.684;23.350;2023-02-12T03:55:26;96268.00;;;0.91;69.78
14067;BME280;7108;42.684;23.350;2023-02-12T03:57:59;96259.28;;;0.81;69.17
14067;BME280;7108;42.684;23.350;2023-02-12T04:00:26;96256.88;;;0.84;68.52
14067;BME280;7108;42.684;23.350;2023-02-12T04:02:52;96249.75;;;0.80;68.21
14067;BME280;7108;42.684;23.350;2023-02-12T04:05:26;96256.06;;;0.89;68.92
14067;BME280;7108;42.684;23.350;2023-02-12T04:07:53;96264.31;;;0.87;68.29
14067;BME280;7108;42.684;23.350;2023-02-12T04:10:29;96255.03;;;0.85;68.02
14067;BME280;7108;42.684;23.350;2023-02-12T04:19:23;96260.78;;;1.02;67.99
14067;BME280;7108;42.684;23.350;2023-02-12T04:24:54;96276.91;;;1.10;68.12
14067;BME280;7108;42.684;23.350;2023-02-12T04:27:36;96281.97;;;1.07;67.86
14067;BME280;7108;42.684;23.350;2023-02-12T04:32:51;96276.41;;;1.08;69.13
14067;BME280;7108;42.684;23.350;2023-02-12T04:35:30;96283.78;;;1.16;69.20
14067;BME280;7108;42.684;23.350;2023-02-12T04:38:15;96282.22;;;1.10;68.96
14067;BME280;7108;42.684;23.350;2023-02-12T04:40:42;96279.03;;;1.13;68.49
14067;BME280;7108;42.684;23.350;2023-02-12T04:43:08;96279.53;;;1.15;68.54
14067;BME280;7108;42.684;23.350;2023-02-12T04:45:35;96289.09;;;1.16;68.62
14067;BME280;7108;42.684;23.350;2023-02-12T04:48:01;96295.72;;;1.19;68.69
14067;BME280;7108;42.684;23.350;2023-02-12T04:50:38;96284.31;;;1.18;69.24
14067;BME280;7108;42.684;23.350;2023-02-12T04:53:04;96289.06;;;1.21;69.28
14067;BME280;7108;42.684;23.350;2023-02-12T04:55:29;96288.03;;;1.17;69.82
14067;BME280;7108;42.684;23.350;2023-02-12T04:57:54;96295.72;;;1.19;68.96
14067;BME280;7108;42.684;23.350;2023-02-12T05:00:20;96289.38;;;1.15;68.91
14067;BME280;7108;42.684;23.350;2023-02-12T05:02:46;96284.59;;;1.17;69.77
14067;BME280;7108;42.684;23.350;2023-02-12T05:05:11;96294.69;;;1.15;69.67
14067;BME280;7108;42.684;23.350;2023-02-12T05:07:36;96270.31;;;1.08;69.57
14067;BME280;7108;42.684;23.350;2023-02-12T05:10:02;96294.94;;;1.18;69.83
14067;BME280;7108;42.684;23.350;2023-02-12T05:12:27;96285.91;;;1.14;70.12
14067;BME280;7108;42.684;23.350;2023-02-12T05:14:53;96297.88;;;1.17;70.25
14067;BME280;7108;42.684;23.350;2023-02-12T05:17:21;96302.63;;;1.20;70.29
14067;BME280;7108;42.684;23.350;2023-02-12T05:19:46;96286.69;;;1.20;70.54
14067;BME280;7108;42.684;23.350;2023-02-12T05:22:12;96303.09;;;1.31;69.87
14067;BME280;7108;42.684;23.350;2023-02-12T05:24:37;96298.03;;;1.30;69.60
14067;BME280;7108;42.684;23.350;2023-02-12T05:27:03;96313.41;;;1.38;70.07
14067;BME280;7108;42.684;23.350;2023-02-12T05:29:28;96309.94;;;1.42;70.95
14067;BME280;7108;42.684;23.350;2023-02-12T05:31:56;96305.72;;;1.41;70.15
14067;BME280;7108;42.684;23.350;2023-02-12T05:34:22;96318.94;;;1.46;69.16
14067;BME280;7108;42.684;23.350;2023-02-12T05:36:47;96324.47;;;1.55;68.98
14067;BME280;7108;42.684;23.350;2023-02-12T05:39:13;96317.31;;;1.55;68.94
14067;BME280;7108;42.684;23.350;2023-02-12T05:41:38;96332.94;;;1.57;68.85
14067;BME280;7108;42.684;23.350;2023-02-12T05:44:04;96326.31;;;1.54;70.94
14067;BME280;7108;42.684;23.350;2023-02-12T05:46:30;96326.59;;;1.53;73.04
14067;BME280;7108;42.684;23.350;2023-02-12T05:48:56;96339.06;;;1.57;74.99
14067;BME280;7108;42.684;23.350;2023-02-12T05:51:24;96325.56;;;1.49;76.68
14067;BME280;7108;42.684;23.350;2023-02-12T05:53:52;96329.00;;;1.49;80.56
14067;BME280;7108;42.684;23.350;2023-02-12T05:56:22;96342.25;;;1.54;82.13
14067;BME280;7108;42.684;23.350;2023-02-12T05:58:54;96340.66;;;1.53;85.04
14067;BME280;7108;42.684;23.350;2023-02-12T06:01:22;96338.88;;;1.44;91.63
14067;BME280;7108;42.684;23.350;2023-02-12T06:03:48;96343.16;;;1.30;99.96
14067;BME280;7108;42.684;23.350;2023-02-12T06:06:14;96342.47;;;1.10;100.00
14067;BME280;7108;42.684;23.350;2023-02-12T06:08:40;96335.63;;;0.99;100.00
14067;BME280;7108;42.684;23.350;2023-02-12T06:11:08;96353.31;;;1.23;100.00
14067;BME280;7108;42.684;23.350;2023-02-12T06:13:34;96345.66;;;1.17;100.00
14067;BME280;7108;42.684;23.350;2023-02-12T06:16:00;96351.19;;;1.15;100.00
14067;BME280;7108;42.684;23.350;2023-02-12T06:18:26;96357.84;;;1.13;100.00
14067;BME280;7108;42.684;23.350;2023-02-12T06:20:52;96350.69;;;1.13;100.00
14067;BME280;7108;42.684;23.350;2023-02-12T06:23:21;96360.75;;;1.16;100.00
14067;BME280;7108;42.684;23.350;2023-02-12T06:25:47;96355.44;;;1.16;100.00
14067;BME280;7108;42.684;23.350;2023-02-12T06:28:13;96356.75;;;1.19;100.00
14067;BME280;7108;42.684;23.350;2023-02-12T06:30:39;96355.44;;;1.16;100.00
14067;BME280;7108;42.684;23.350;2023-02-12T06:33:04;96359.72;;;1.12;100.00
14067;BME280;7108;42.684;23.350;2023-02-12T06:35:30;96366.06;;;1.16;100.00
14067;BME280;7108;42.684;23.350;2023-02-12T06:37:55;96364.72;;;1.19;100.00
14067;BME280;7108;42.684;23.350;2023-02-12T06:40:21;96357.06;;;1.12;100.00
14067;BME280;7108;42.684;23.350;2023-02-12T06:42:46;96373.50;;;1.19;100.00
14067;BME280;7108;42.684;23.350;2023-02-12T06:45:11;96370.31;;;1.17;100.00
14067;BME280;7108;42.684;23.350;2023-02-12T06:47:37;96369.78;;;1.15;100.00
14067;BME280;7108;42.684;23.350;2023-02-12T06:50:02;96369.78;;;1.15;100.00
14067;BME280;7108;42.684;23.350;2023-02-12T06:52:28;96366.84;;;1.22;100.00
14067;BME280;7108;42.684;23.350;2023-02-12T06:54:54;96362.06;;;1.24;100.00
14067;BME280;7108;42.684;23.350;2023-02-12T06:57:19;96367.09;;;1.25;100.00
14067;BME280;7108;42.684;23.350;2023-02-12T06:59:45;96376.63;;;1.31;100.00
14067;BME280;7108;42.684;23.350;2023-02-12T07:02:10;96375.84;;;1.30;100.00
14067;BME280;7108;42.684;23.350;2023-02-12T07:04:39;96367.91;;;1.26;100.00
14067;BME280;7108;42.684;23.350;2023-02-12T07:07:05;96370.28;;;1.27;100.00
14067;BME280;7108;42.684;23.350;2023-02-12T07:09:30;96362.66;;;1.11;100.00
14067;BME280;7108;42.684;23.350;2023-02-12T07:11:59;96367.91;;;1.21;100.00
14067;BME280;7108;42.684;23.350;2023-02-12T07:14:24;96361.31;;;1.13;100.00
14067;BME280;7108;42.684;23.350;2023-02-12T07:16:53;96373.50;;;1.14;100.00
14067;BME280;7108;42.684;23.350;2023-02-12T07:19:19;96383.59;;;1.12;100.00
14067;BME280;7108;42.684;23.350;2023-02-12T07:21:44;96390.22;;;1.15;100.00
14067;BME280;7108;42.684;23.350;2023-02-12T07:24:10;96388.91;;;1.12;100.00
14067;BME280;7108;42.684;23.350;2023-02-12T07:26:40;96381.75;;;1.08;100.00
14067;BME280;7108;42.684;23.350;2023-02-12T07:29:06;96393.97;;;1.04;100.00
14067;BME280;7108;42.684;23.350;2023-02-12T07:31:32;96385.22;;;1.03;100.00
14067;BME280;7108;42.684;23.350;2023-02-12T07:33:58;96390.75;;;1.07;100.00
14067;BME280;7108;42.684;23.350;2023-02-12T07:36:26;96391.56;;;1.07;100.00
14067;BME280;7108;42.684;23.350;2023-02-12T07:38:53;96384.16;;;0.99;100.00
14067;BME280;7108;42.684;23.350;2023-02-12T07:41:24;96391.31;;;1.09;100.00
14067;BME280;7108;42.684;23.350;2023-02-12T07:44:04;96399.53;;;1.02;100.00
14067;BME280;7108;42.684;23.350;2023-02-12T07:46:45;96393.72;;;1.00;100.00
14067;BME280;7108;42.684;23.350;2023-02-12T07:49:13;96401.63;;;1.10;100.00
14067;BME280;7108;42.684;23.350;2023-02-12T07:51:39;96390.28;;;1.00;100.00
14067;BME280;7108;42.684;23.350;2023-02-12T07:54:04;96402.72;;;0.99;100.00
14067;BME280;7108;42.684;23.350;2023-02-12T07:56:32;96386.56;;;0.91;100.00
14067;BME280;7108;42.684;23.350;2023-02-12T07:59:01;96404.31;;;1.00;100.00
14067;BME280;7108;42.684;23.350;2023-02-12T08:01:29;96391.31;;;0.99;100.00
14067;BME280;7108;42.684;23.350;2023-02-12T08:04:01;96400.34;;;1.03;100.00
14067;BME280;7108;42.684;23.350;2023-02-12T08:06:29;96399.53;;;1.02;100.00
14067;BME280;7108;42.684;23.350;2023-02-12T08:08:57;96393.72;;;1.00;100.00
14067;BME280;7108;42.684;23.350;2023-02-12T08:11:23;96387.63;;;0.95;100.00
14067;BME280;7108;42.684;23.350;2023-02-12T08:13:50;96395.03;;;0.98;100.00
14067;BME280;7108;42.684;23.350;2023-02-12T08:16:18;96398.75;;;1.02;100.00
14067;BME280;7108;42.684;23.350;2023-02-12T08:18:44;96398.75;;;0.97;100.00
14067;BME280;7108;42.684;23.350;2023-02-12T08:21:13;96379.41;;;0.91;100.00
14067;BME280;7108;42.684;23.350;2023-02-12T08:23:39;96404.03;;;1.07;100.00
14067;BME280;7108;42.684;23.350;2023-02-12T08:26:14;96399.00;;;1.05;100.00
14067;BME280;7108;42.684;23.350;2023-02-12T08:28:43;96414.09;;;1.20;100.00
14067;BME280;7108;42.684;23.350;2023-02-12T08:31:15;96413.84;;;1.06;100.00
14067;BME280;7108;42.684;23.350;2023-02-12T08:33:40;96418.63;;;1.19;100.00
14067;BME280;7108;42.684;23.350;2023-02-12T08:36:11;96424.75;;;1.10;100.00
14067;BME280;7108;42.684;23.350;2023-02-12T08:38:38;96429.22;;;1.14;100.00
14067;BME280;7108;42.684;23.350;2023-02-12T08:41:08;96430.03;;;1.10;100.00
14067;BME280;7108;42.684;23.350;2023-02-12T08:43:34;96434.53;;;1.14;100.00
14067;BME280;7108;42.684;23.350;2023-02-12T08:46:01;96443.56;;;1.23;100.00
14067;BME280;7108;42.684;23.350;2023-02-12T08:48:27;96441.94;;;1.32;100.00
14067;BME280;7108;42.684;23.350;2023-02-12T08:50:52;96446.19;;;1.33;100.00
14067;BME280;7108;42.684;23.350;2023-02-12T08:53:21;96444.28;;;1.38;100.00
14067;BME280;7108;42.684;23.350;2023-02-12T08:55:49;96442.44;;;1.44;100.00
14067;BME280;7108;42.684;23.350;2023-02-12T08:58:15;96450.91;;;1.46;100.00
14067;BME280;7108;42.684;23.350;2023-02-12T09:00:40;96450.09;;;1.50;100.00
14067;BME280;7108;42.684;23.350;2023-02-12T09:03:05;96450.34;;;1.59;100.00
14067;BME280;7108;42.684;23.350;2023-02-12T09:05:31;96451.91;;;1.65;100.00
14067;BME280;7108;42.684;23.350;2023-02-12T09:07:56;96453.50;;;1.56;100.00
14067;BME280;7108;42.684;23.350;2023-02-12T09:10:22;96452.19;;;1.58;100.00
14067;BME280;7108;42.684;23.350;2023-02-12T09:12:47;96465.50;;;1.43;100.00
14067;BME280;7108;42.684;23.350;2023-02-12T09:15:13;96462.59;;;1.45;100.00
14067;BME280;7108;42.684;23.350;2023-02-12T09:17:38;96456.25;;;1.36;100.00
14067;BME280;7108;42.684;23.350;2023-02-12T09:20:09;96457.81;;;1.42;100.00
14067;BME280;7108;42.684;23.350;2023-02-12T09:22:34;96457.53;;;1.48;100.00
14067;BME280;7108;42.684;23.350;2023-02-12T09:25:03;96461.47;;;1.56;100.00
14067;BME280;7108;42.684;23.350;2023-02-12T09:27:29;96458.31;;;1.59;100.00
14067;BME280;7108;42.684;23.350;2023-02-12T09:29:54;96465.97;;;1.65;100.00
14067;BME280;7108;42.684;23.350;2023-02-12T09:32:20;96466.22;;;1.69;100.00
14067;BME280;7108;42.684;23.350;2023-02-12T09:34:45;96462.78;;;1.68;100.00
14067;BME280;7108;42.684;23.350;2023-02-12T09:37:10;96468.09;;;1.68;100.00
14067;BME280;7108;42.684;23.350;2023-02-12T09:39:36;96471.81;;;1.67;100.00
14067;BME280;7108;42.684;23.350;2023-02-12T09:45:08;96471.81;;;1.67;100.00
14067;BME280;7108;42.684;23.350;2023-02-12T09:47:43;96480.31;;;1.64;100.00
14067;BME280;7108;42.684;23.350;2023-02-12T09:50:17;96480.03;;;1.71;100.00
14067;BME280;7108;42.684;23.350;2023-02-12T09:52:50;96482.16;;;1.74;100.00
14067;BME280;7108;42.684;23.350;2023-02-12T09:55:17;96485.31;;;1.81;100.00
14067;BME280;7108;42.684;23.350;2023-02-12T09:57:43;96483.16;;;1.83;100.00
14067;BME280;7108;42.684;23.350;2023-02-12T10:00:30;96479.69;;;1.87;100.00
14067;BME280;7108;42.684;23.350;2023-02-12T10:03:00;96459.53;;;1.81;100.00
14067;BME280;7108;42.684;23.350;2023-02-12T10:05:31;96476.41;;;2.10;100.00
14067;BME280;7108;42.684;23.350;2023-02-12T10:19:17;96482.50;;;2.54;100.00
14067;BME280;7108;42.684;23.350;2023-02-12T10:27:32;96477.88;;;2.69;100.00
14067;BME280;7108;42.684;23.350;2023-02-12T10:30:00;96484.63;;;2.52;100.00
14067;BME280;7108;42.684;23.350;2023-02-12T10:32:31;96492.69;;;2.42;100.00
14067;BME280;7108;42.684;23.350;2023-02-12T10:34:58;96480.22;;;2.37;100.00
14067;BME280;7108;42.684;23.350;2023-02-12T10:40:17;96474.66;;;2.34;100.00
14067;BME280;7108;42.684;23.350;2023-02-12T10:42:47;96469.66;;;2.27;100.00
14067;BME280;7108;42.684;23.350;2023-02-12T10:45:16;96472.78;;;2.34;100.00
14067;BME280;7108;42.684;23.350;2023-02-12T10:47:48;96480.19;;;2.42;100.00
14067;BME280;7108;42.684;23.350;2023-02-12T10:50:27;96472.50;;;2.41;100.00
14067;BME280;7108;42.684;23.350;2023-02-12T10:53:00;96475.31;;;2.59;100.00
14067;BME280;7108;42.684;23.350;2023-02-12T10:55:32;96485.03;;;2.73;100.00
14067;BME280;7108;42.684;23.350;2023-02-12T10:58:00;96481.03;;;2.71;100.00
14067;BME280;7108;42.684;23.350;2023-02-12T11:00:33;96484.47;;;2.76;100.00
14067;BME280;7108;42.684;23.350;2023-02-12T11:05:38;96488.44;;;2.79;100.00
14067;BME280;7108;42.684;23.350;2023-02-12T11:08:05;96482.41;;;2.68;100.00
14067;BME280;7108;42.684;23.350;2023-02-12T11:10:40;96476.22;;;2.78;100.00
14067;BME280;7108;42.684;23.350;2023-02-12T11:13:25;96472.47;;;2.79;100.00
14067;BME280;7108;42.684;23.350;2023-02-12T11:15:52;96482.59;;;2.77;100.00
14067;BME280;7108;42.684;23.350;2023-02-12T11:18:24;96472.63;;;2.92;100.00
14067;BME280;7108;42.684;23.350;2023-02-12T11:20:59;96469.97;;;2.92;100.00
14067;BME280;7108;42.684;23.350;2023-02-12T11:23:30;96469.28;;;3.10;100.00
14067;BME280;7108;42.684;23.350;2023-02-12T11:26:01;96459.88;;;3.18;100.00
14067;BME280;7108;42.684;23.350;2023-02-12T11:28:28;96460.59;;;3.28;100.00
14067;BME280;7108;42.684;23.350;2023-02-12T11:31:00;96465.09;;;3.27;100.00
14067;BME280;7108;42.684;23.350;2023-02-12T11:33:34;96469.06;;;3.30;100.00
14067;BME280;7108;42.684;23.350;2023-02-12T11:36:04;96461.91;;;3.30;100.00
14067;BME280;7108;42.684;23.350;2023-02-12T11:38:36;96460.91;;;3.22;100.00
14067;BME280;7108;42.684;23.350;2023-02-12T11:41:18;96454.56;;;3.18;100.00
14067;BME280;7108;42.684;23.350;2023-02-12T11:43:46;96462.88;;;3.11;100.00
14067;BME280;7108;42.684;23.350;2023-02-12T11:46:18;96458.75;;;3.23;100.00
14067;BME280;7108;42.684;23.350;2023-02-12T11:48:45;96458.22;;;3.26;100.00
14067;BME280;7108;42.684;23.350;2023-02-12T11:51:18;96453.16;;;3.25;100.00
14067;BME280;7108;42.684;23.350;2023-02-12T11:53:48;96457.97;;;3.23;100.00
14067;BME280;7108;42.684;23.350;2023-02-12T11:56:18;96460.59;;;3.28;100.00
14067;BME280;7108;42.684;23.350;2023-02-12T11:58:47;96463.50;;;3.31;100.00
14067;BME280;7108;42.684;23.350;2023-02-12T12:11:48;96464.69;;;3.44;100.00
14067;BME280;7108;42.684;23.350;2023-02-12T12:14:47;96463.75;;;3.53;100.00
14067;BME280;7108;42.684;23.350;2023-02-12T12:17:55;96466.59;;;3.62;100.00
14067;BME280;7108;42.684;23.350;2023-02-12T12:20:51;96460.50;;;3.61;100.00
14067;BME280;7108;42.684;23.350;2023-02-12T12:23:56;96466.09;;;3.60;100.00
14067;BME280;7108;42.684;23.350;2023-02-12T12:26:27;96476.19;;;3.63;100.00
14067;BME280;7108;42.684;23.350;2023-02-12T12:29:05;96479.03;;;3.71;100.00
14067;BME280;7108;42.684;23.350;2023-02-12T12:31:43;96477.16;;;3.72;100.00
14067;BME280;7108;42.684;23.350;2023-02-12T12:34:21;96469.78;;;3.64;100.00
14067;BME280;7108;42.684;23.350;2023-02-12T12:47:58;96478.38;;;3.79;100.00
14067;BME280;7108;42.684;23.350;2023-02-12T12:53:10;96482.34;;;3.82;100.00
14067;BME280;7108;42.684;23.350;2023-02-12T13:00:53;96490.59;;;3.85;100.00
14067;BME280;7108;42.684;23.350;2023-02-12T13:03:54;96490.34;;;3.82;100.00
14067;BME280;7108;42.684;23.350;2023-02-12T13:06:34;96497.22;;;3.88;100.00
14067;BME280;7108;42.684;23.350;2023-02-12T13:09:27;96494.06;;;3.86;100.00
14067;BME280;7108;42.684;23.350;2023-02-12T13:12:13;96501.59;;;3.79;100.00
14067;BME280;7108;42.684;23.350;2023-02-12T13:17:28;96491.66;;;3.84;100.00
14067;BME280;7108;42.684;23.350;2023-02-12T13:22:59;96503.06;;;3.89;100.00
14067;BME280;7108;42.684;23.350;2023-02-12T13:25:45;96501.47;;;3.88;100.00
14067;BME280;7108;42.684;23.350;2023-02-12T13:28:15;96496.66;;;3.90;100.00
14067;BME280;7108;42.684;23.350;2023-02-12T13:30:48;96510.00;;;3.90;100.00
14067;BME280;7108;42.684;23.350;2023-02-12T13:33:23;96496.44;;;3.87;100.00
14067;BME280;7108;42.684;23.350;2023-02-12T13:35:57;96501.13;;;3.95;100.00
14067;BME280;7108;42.684;23.350;2023-02-12T13:38:37;96504.78;;;4.04;100.00
14067;BME280;7108;42.684;23.350;2023-02-12T13:41:07;96497.56;;;4.04;100.00
14067;BME280;7108;42.684;23.350;2023-02-12T13:43:45;96506.56;;;4.08;100.00
14067;BME280;7108;42.684;23.350;2023-02-12T13:49:15;96512.78;;;4.04;100.00
14067;BME280;7108;42.684;23.350;2023-02-12T13:51:47;96520.59;;;3.95;100.00
14067;BME280;7108;42.684;23.350;2023-02-12T13:54:25;96508.34;;;3.94;100.00
14067;BME280;7108;42.684;23.350;2023-02-12T13:56:57;96508.69;;;3.88;100.00
14067;BME280;7108;42.684;23.350;2023-02-12T14:02:04;96530.19;;;3.96;100.00
14067;BME280;7108;42.684;23.350;2023-02-12T14:04:45;96531.50;;;3.99;100.00
14067;BME280;7108;42.684;23.350;2023-02-12T14:07:14;96534.66;;;4.01;100.00
14067;BME280;7108;42.684;23.350;2023-02-12T14:14:55;96541.69;;;3.92;100.00
14067;BME280;7108;42.684;23.350;2023-02-12T14:24:52;96546.56;;;3.85;100.00
14067;BME280;7108;42.684;23.350;2023-02-12T14:27:25;96559.91;;;3.85;100.00
14067;BME280;7108;42.684;23.350;2023-02-12T14:35:33;96566.63;;;3.78;100.00
14067;BME280;7108;42.684;23.350;2023-02-12T14:38:02;96575.69;;;3.77;100.00
14067;BME280;7108;42.684;23.350;2023-02-12T14:43:03;96572.25;;;3.76;100.00
14067;BME280;7108;42.684;23.350;2023-02-12T14:45:34;96576.50;;;3.77;100.00
14067;BME280;7108;42.684;23.350;2023-02-12T14:48:01;96583.44;;;3.78;100.00
14067;BME280;7108;42.684;23.350;2023-02-12T14:50:37;96596.00;;;3.73;100.00
14067;BME280;7108;42.684;23.350;2023-02-12T14:53:22;96576.31;;;3.69;100.00
14067;BME280;7108;42.684;23.350;2023-02-12T14:55:50;96588.00;;;3.73;100.00
14067;BME280;7108;42.684;23.350;2023-02-12T14:58:19;96595.16;;;3.77;100.00
14067;BME280;7108;42.684;23.350;2023-02-12T15:00:46;96597.88;;;3.72;100.00
14067;BME280;7108;42.684;23.350;2023-02-12T15:05:48;96597.88;;;3.72;100.00
14067;BME280;7108;42.684;23.350;2023-02-12T15:10:49;96634.22;;;3.58;100.00
14067;BME280;7108;42.684;23.350;2023-02-12T15:13:25;96623.63;;;3.53;100.00
14067;BME280;7108;42.684;23.350;2023-02-12T15:16:07;96630.78;;;3.58;100.00
14067;BME280;7108;42.684;23.350;2023-02-12T15:21:24;96647.94;;;3.47;100.00
14067;BME280;7108;42.684;23.350;2023-02-12T15:24:00;96653.22;;;3.52;100.00
14067;BME280;7108;42.684;23.350;2023-02-12T15:26:27;96658.25;;;3.53;100.00
14067;BME280;7108;42.684;23.350;2023-02-12T15:28:53;96661.16;;;3.57;100.00
14067;BME280;7108;42.684;23.350;2023-02-12T15:31:23;96669.16;;;3.57;100.00
14067;BME280;7108;42.684;23.350;2023-02-12T15:33:51;96681.66;;;3.61;100.00